Ajax, Kentucky
Current Conditions -  °F | °C
As of 9:53 AM on Monday 22 Dec 2014 (Local Time) from KJKL Reporting Station
Overcast Overcast  
Wind Chill: 42°   Ceiling: 3400
Heat Index: 42°   Visibility: 10mi
Dew Point: 34°   Wind: 3mph
Humidity: 73%   Direction: NA
Pressure: 30.01"   Gusts: NA
Location:  37.3318°N, 83.1697°W
Report Text: KJKL 221453Z AUTO VRB03KT 10SM OVC034 06/01 A3001 RMK AO2 SLP166 T00560011 58002
Loading
Personal Weather Stations






























Interactive Weather Map New forecast layout! Learn more

10-Day Weather Forecast

Advertisements
Track Severe Weather on mobile